Data for 09/21/2015

Time Sea-Level Adjusted Pressure Absolute Pressure Temperature Relative Humidity Dew Point   
(mb) (inHg) (mb) (inHg) (C) (F) (%) (C) (F)
00:05 1015 29.97 844 24.92 17.2 62.9 32 0.3 32.6
00:10 1015 29.97 844 24.92 17.2 63 31 0.1 32.3
00:15 1015 29.97 844 24.92 17.4 63.2 31 0.3 32.6
00:20 1015 29.97 844 24.92 17.4 63.3 31 0.4 32.7
00:25 1015 29.97 844 24.92 17.4 63.2 31 0.3 32.5
00:30 1015 29.97 845 24.95 17.3 63.1 31 0.2 32.3
00:35 1015 29.97 845 24.95 17.4 63.2 31 0.2 32.4
00:40 1015 29.97 845 24.95 17.3 63.1 31 0.2 32.4
00:45 1015 29.97 845 24.95 17.3 63.1 31 0.2 32.3
00:50 1015 29.97 845 24.95 17.5 63.4 30 -0.2 31.7
00:55 1015 29.97 845 24.95 17.7 63.9 30 -0.1 31.9
01:00 1015 29.97 845 24.95 17.7 63.9 30 -0 31.9
01:05 1015 29.97 845 24.95 17.6 63.7 30 -0.2 31.6
01:10 1015 29.97 845 24.95 17.6 63.7 30 -0.1 31.8
01:15 1015 29.97 845 24.95 17.5 63.6 30 -0 31.9
01:20 1015 29.97 845 24.95 17.4 63.3 31 0 32
01:25 1015 29.97 845 24.95 17.1 62.8 31 0.1 32.2
01:30 1015 29.97 845 24.95 17 62.6 31 0 32
01:35 1015 29.97 845 24.95 17.1 62.7 31 0 32
01:40 1015 29.97 845 24.95 17.1 62.8 31 0.1 32.2
01:45 1015 29.97 845 24.95 17 62.6 32 0.3 32.5
01:50 1015 29.97 845 24.95 16.7 62 33 0.6 33
01:55 1015 29.97 845 24.95 16.3 61.3 34 0.5 33
02:00 1015 29.97 845 24.95 16 60.8 35 0.6 33.1
02:05 1015 29.97 845 24.95 15.9 60.6 34 0.3 32.6
02:10 1015 29.97 845 24.95 15.8 60.4 34 0.2 32.3
02:15 1015 29.97 845 24.95 16 60.8 33 -0 32
02:20 1015 29.97 845 24.95 16.1 61 33 0 32.1
02:25 1015 29.97 845 24.95 16.1 60.9 34 0.1 32.2
02:30 1015 29.97 845 24.95 15.9 60.6 34 -0 31.9
02:35 1015 29.97 845 24.95 16 60.7 33 -0.4 31.3
02:40 1015 29.97 845 24.95 16.1 60.9 32 -0.3 31.4
02:45 1015 29.97 845 24.95 16 60.8 33 -0.3 31.5
02:50 1016 30 845 24.95 16 60.8 32 -0.6 31
02:55 1016 30 845 24.95 16.1 61 32 -0.5 31
03:00 1016 30 845 24.95 16.3 61.3 31 -0.7 30.8
03:05 1016 30 845 24.95 16.4 61.5 31 -0.6 30.9
03:10 1016 30 845 24.95 16.3 61.4 31 -0.6 30.9
03:15 1016 30 845 24.95 16.2 61.1 32 -0.6 31
03:20 1016 30 845 24.95 16.1 61.1 31 -0.9 30.4
03:25 1016 30 845 24.95 16.2 61.2 31 -0.9 30.4
03:30 1016 30 845 24.95 16.3 61.3 31 -0.7 30.7
03:35 1016 30 845 24.95 16.1 61 31 -0.8 30.6
03:40 1016 30 845 24.95 16.1 60.9 31 -0.8 30.6
03:45 1016 30 845 24.95 15.8 60.4 34 -0 32
03:50 1016 30 845 24.95 14.7 58.4 36 -0.3 31.5
03:55 1016 30 845 24.95 14.6 58.2 36 -0.2 31.7
04:00 1016 30 845 24.95 14.6 58.3 35 -0.7 30.7
04:05 1016 30 845 24.95 15 59 33 -0.9 30.4
04:10 1016 30 845 24.95 15.2 59.3 34 -0.6 30.8
04:15 1016 30 845 24.95 14.7 58.5 36 -0.2 31.7
04:20 1016 30 845 24.95 14.5 58.2 34 -1.2 29.9
04:25 1016 30 845 24.95 15.2 59.3 33 -1 30.1
04:30 1016 30 846 24.98 15.4 59.7 32 -1 30.3
04:35 1016 30 846 24.98 15.3 59.6 33 -0.9 30.5
04:40 1016 30 846 24.98 14.9 58.8 34 -0.6 30.9
04:45 1016 30 846 24.98 14.9 58.7 33 -1.2 29.9
04:50 1016 30 846 24.98 15.1 59.2 33 -0.9 30.3
04:55 1016 30 846 24.98 15 59 33 -1 30.3
05:00 1016 30 846 24.98 14.8 58.7 33 -1 30.1
05:05 1016 30 846 24.98 14.7 58.5 35 -0.6 30.9
05:10 1016 30 846 24.98 14.3 57.8 37 -0.2 31.6
05:15 1016 30 846 24.98 14 57.3 39 0.4 32.8
05:20 1016 30 846 24.98 13.8 56.8 39 0.1 32.2
05:25 1016 30 846 24.98 13.9 56.9 39 0.2 32.3
05:30 1017 30.03 846 24.98 13.9 56.9 40 0.6 33.1
05:35 1017 30.03 846 24.98 13.9 57.1 37 -0.3 31.4
05:40 1017 30.03 846 24.98 14.1 57.3 38 0.1 32.1
05:45 1017 30.03 846 24.98 14.2 57.6 38 0 32.1
05:50 1017 30.03 846 24.98 14.2 57.5 37 -0.1 31.9
05:55 1017 30.03 846 24.98 14.1 57.4 39 0.5 33
06:00 1017 30.03 846 24.98 14 57.1 39 0.4 32.7
06:05 1017 30.03 846 24.98 13.8 56.8 41 0.8 33.4
06:10 1017 30.03 846 24.98 13.5 56.4 41 0.5 32.8
06:15 1017 30.03 846 24.98 13.4 56.1 41 0.4 32.7
06:20 1017 30.03 846 24.98 13.3 56 41 0.4 32.6
06:25 1017 30.03 846 24.98 13.4 56.1 40 0.2 32.4
06:30 1017 30.03 846 24.98 13.6 56.4 41 0.6 33.1
06:35 1017 30.03 846 24.98 13.6 56.4 41 0.8 33.4
06:40 1017 30.03 846 24.98 13.6 56.5 40 0.5 32.8
06:45 1017 30.03 846 24.98 13.8 56.9 40 0.5 32.9
06:50 1017 30.03 846 24.98 14.1 57.3 38 0.1 32.3
06:55 1017 30.03 846 24.98 14.4 57.9 37 -0 32
07:00 1017 30.03 846 24.98 15 59.1 35 -0.1 31.8
07:05 1017 30.03 846 24.98 15.3 59.6 36 0.3 32.5
07:10 1017 30.03 846 24.98 15.8 60.4 33 -0.3 31.5
07:15 1017 30.03 846 24.98 16.4 61.5 33 0 32
07:20 1017 30.03 846 24.98 17 62.6 31 -0 32
07:25 1017 30.03 846 24.98 17.5 63.4 31 0.2 32.4
07:30 1017 30.03 846 24.98 17.6 63.6 31 0.2 32.3
07:35 1017 30.03 846 24.98 17.5 63.5 32 0.7 33.3
07:40 1017 30.03 846 24.98 17.5 63.5 31 0.4 32.6
07:45 1017 30.03 846 24.98 17.8 64 30 -0.1 31.9
07:50 1017 30.03 846 24.98 18 64.4 30 0.5 33
07:55 1017 30.03 846 24.98 18.1 64.5 31 0.8 33.4
08:00 1017 30.03 847 25.01 18.1 64.6 30 0.6 33.1
08:05 1017 30.03 847 25.01 18 64.4 31 0.7 33.3
08:10 1017 30.03 847 25.01 17.9 64.3 31 0.5 33
08:15 1018 30.06 847 25.01 18 64.5 31 0.6 33.1
08:20 1018 30.06 847 25.01 18.4 65 30 0.7 33.3
08:25 1018 30.06 847 25.01 18.4 65.1 30 0.6 33.1
08:30 1018 30.06 847 25.01 18.9 66 29 0.6 33.2
08:35 1018 30.06 847 25.01 19.2 66.6 29 0.7 33.3
08:40 1018 30.06 847 25.01 19.3 66.8 28 0.7 33.3
08:45 1018 30.06 847 25.01 19.3 66.8 28 0.7 33.2
08:50 1018 30.06 847 25.01 19.1 66.3 29 0.7 33.3
08:55 1018 30.06 847 25.01 19.2 66.5 31 1.8 35.2
09:00 1018 30.06 847 25.01 19.4 66.8 30 1.3 34.3
09:05 1017 30.03 847 25.01 19.5 67.1 28 0.6 33.1
09:10 1018 30.06 847 25.01 20 67.9 28 1 33.9
09:15 1018 30.06 847 25.01 20 67.9 29 1.5 34.7
09:20 1018 30.06 847 25.01 20.3 68.5 28 1.2 34.1
09:25 1018 30.06 847 25.01 20.1 68.1 27 0.9 33.6
09:30 1018 30.06 847 25.01 20.9 69.5 27 1.3 34.3
09:35 1018 30.06 847 25.01 21 69.8 27 1.5 34.6
09:40 1018 30.06 847 25.01 20.9 69.5 28 1.6 34.9
09:45 1018 30.06 847 25.01 20.9 69.7 27 1.6 34.8
09:50 1018 30.06 847 25.01 21.1 70 27 1.7 35.1
09:55 1018 30.06 847 25.01 21.2 70.1 27 1.8 35.2
10:00 1018 30.06 847 25.01 21.4 70.5 26 1.4 34.6
10:05 1018 30.06 847 25.01 21.6 70.8 26 1.3 34.3
10:10 1018 30.06 847 25.01 21.5 70.6 27 1.8 35.2
10:15 1017 30.03 847 25.01 21.4 70.5 26 1.4 34.6
10:20 1018 30.06 847 25.01 21.5 70.7 27 1.7 35
10:25 1017 30.03 847 25.01 21.5 70.7 26 1.2 34.1
10:30 1017 30.03 847 25.01 21.6 70.9 26 1.7 35
10:35 1017 30.03 847 25.01 21.5 70.6 27 2.1 35.7
10:40 1017 30.03 847 25.01 21.8 71.2 26 1.6 34.9
10:45 1017 30.03 847 25.01 21.9 71.4 26 1.8 35.2
10:50 1017 30.03 847 25.01 21.7 71 27 1.9 35.5
10:55 1017 30.03 847 25.01 21.7 71 27 2.1 35.8
11:00 1017 30.03 847 25.01 22.3 72.2 25 1.8 35.2
11:05 1017 30.03 847 25.01 22.9 73.1 24 1.3 34.4
11:10 1017 30.03 847 25.01 23.2 73.7 24 1.9 35.4
11:15 1017 30.03 846 24.98 22.7 72.9 25 2.1 35.8
11:20 1017 30.03 846 24.98 22.4 72.2 24 1.3 34.3
11:25 1017 30.03 846 24.98 22.4 72.4 26 1.9 35.5
11:30 1017 30.03 846 24.98 22.7 72.8 23 0.9 33.6
11:35 1017 30.03 846 24.98 23.3 73.9 24 1.6 34.9
11:40 1017 30.03 846 24.98 23.4 74.2 24 2 35.6
11:45 1017 30.03 846 24.98 23.4 74.2 23 1.2 34.1
11:50 1017 30.03 846 24.98 23.6 74.4 23 1.6 34.9
11:55 1017 30.03 846 24.98 23 73.3 23 1.1 34
12:00 1017 30.03 846 24.98 23.3 74 24 2 35.6
12:05 1017 30.03 846 24.98 23 73.3 24 1.6 35
12:10 1017 30.03 846 24.98 23.4 74.1 24 1.9 35.4
12:15 1017 30.03 846 24.98 23.7 74.7 24 2.3 36.1
12:20 1017 30.03 846 24.98 23.6 74.4 23 1.4 34.6
12:25 1017 30.03 846 24.98 23.7 74.6 23 1.7 35.1
12:30 1017 30.03 846 24.98 24.3 75.7 23 1.9 35.4
12:35 1016 30 846 24.98 24.2 75.6 23 1.8 35.2
12:40 1016 30 846 24.98 24 75.3 23 1.6 34.9
12:45 1016 30 846 24.98 23.2 73.7 23 1.3 34.3
12:50 1016 30 846 24.98 23.9 74.9 22 1.3 34.4
12:55 1016 30 846 24.98 24.6 76.3 22 1.9 35.4
13:00 1016 30 846 24.98 24.7 76.5 22 1.7 35
13:05 1016 30 845 24.95 24.7 76.4 22 1.8 35.3
13:10 1016 30 845 24.95 24.8 76.6 22 1.9 35.4
13:15 1016 30 845 24.95 25 77 22 1.7 35.1
13:20 1016 30 845 24.95 24.7 76.4 23 2.5 36.4
13:25 1016 30 845 24.95 24.5 76 21 0.8 33.5
13:30 1016 30 845 24.95 24.8 76.6 21 1.3 34.3
13:35 1016 30 845 24.95 24.1 75.4 21 0.9 33.6
13:40 1016 30 845 24.95 24.1 75.4 21 1 33.7
13:45 1016 30 845 24.95 24 75.2 21 0.4 32.7
13:50 1016 30 845 24.95 24.7 76.4 21 1.4 34.5
13:55 1016 30 845 24.95 24.8 76.7 21 1.1 33.9
14:00 1016 30 845 24.95 25.2 77.4 21 1.6 34.8
14:05 1016 30 845 24.95 25.3 77.5 21 1.6 34.8
14:10 1016 30 845 24.95 25.1 77.2 21 1.7 35
14:15 1016 30 845 24.95 24.9 76.9 21 1 33.9
14:20 1016 30 845 24.95 24.8 76.6 22 1.7 35.1
14:25 1016 30 845 24.95 24 75.2 22 1.4 34.5
14:30 1016 30 845 24.95 23.6 74.5 22 0.9 33.6
14:35 1016 30 845 24.95 24.2 75.5 21 0.9 33.7
14:40 1016 30 845 24.95 24.1 75.4 21 0.9 33.6
14:45 1016 30 845 24.95 24.5 76.2 21 1 33.9
14:50 1016 30 845 24.95 25.1 77.1 21 1.3 34.4
14:55 1016 30 845 24.95 24.2 75.5 22 1.2 34.2
15:00 1016 30 845 24.95 24.3 75.7 23 2.2 35.9
15:05 1016 30 845 24.95 24.5 76.1 22 1.5 34.7
15:10 1016 30 845 24.95 24.5 76.1 20 0.6 33
15:15 1016 30 845 24.95 24.3 75.8 20 0.3 32.6
15:20 1016 30 845 24.95 24.3 75.7 22 1.2 34.2
15:25 1016 30 845 24.95 24.2 75.5 22 1 33.9
15:30 1016 30 845 24.95 24.2 75.5 22 1.6 34.8
15:35 1016 30 845 24.95 23.7 74.6 21 0.6 33.1
15:40 1016 30 845 24.95 23.6 74.4 22 0.5 32.9
15:45 1016 30 845 24.95 23.8 74.9 20 -0.3 31.4
15:50 1016 30 845 24.95 24.2 75.5 21 0.5 32.8
15:55 1016 30 845 24.95 23.6 74.4 20 -0.4 31.3
16:00 1016 30 845 24.95 23.5 74.4 21 -0.1 31.9
16:05 1016 30 845 24.95 24 75.2 20 0.1 32.2
16:10 1016 30 845 24.95 24.5 76 20 0.2 32.4
16:15 1016 30 845 24.95 24.8 76.7 19 -0 32
16:20 1016 30 845 24.95 24.8 76.6 19 -0.4 31.3
16:25 1016 30 845 24.95 24.7 76.5 20 0.4 32.7
16:30 1016 30 845 24.95 24.4 76 20 0 32.1
16:35 1016 30 845 24.95 24.1 75.3 21 0.8 33.4
16:40 1016 30 845 24.95 24.3 75.8 20 -0.2 31.7
16:45 1016 30 845 24.95 23.9 75 21 0.3 32.5
16:50 1016 30 845 24.95 24.1 75.3 20 -0.2 31.7
16:55 1016 30 845 24.95 24.4 76 20 0.5 32.9
17:00 1016 30 845 24.95 24.5 76.1 20 0.3 32.5
17:05 1016 30 845 24.95 23.5 74.2 21 0 32.1
17:10 1016 30 845 24.95 23.3 74 21 0.3 32.6
17:15 1016 30 845 24.95 23.3 73.9 22 0.6 33.1
17:20 1016 30 845 24.95 23.4 74.2 20 -0.3 31.5
17:25 1016 30 845 24.95 23.5 74.3 22 0.9 33.6
17:30 1016 30 845 24.95 23.6 74.4 21 0.5 32.9
17:35 1016 30 845 24.95 23.4 74.2 22 1 33.8
17:40 1016 30 845 24.95 23.2 73.7 23 0.9 33.6
17:45 1016 30 845 24.95 23 73.4 23 0.9 33.6
17:50 1016 30 845 24.95 22.8 73.1 24 1.3 34.4
17:55 1016 30 845 24.95 22.6 72.6 25 1.6 34.9
18:00 1016 30 845 24.95 22.3 72.1 26 2.1 35.7
18:05 1016 30 845 24.95 22.1 71.8 26 1.6 35
18:10 1016 30 845 24.95 22 71.5 26 1.9 35.5
18:15 1016 30 845 24.95 21.9 71.4 27 2 35.7
18:20 1016 30 845 24.95 21.8 71.3 29 3.1 37.5
18:25 1016 30 845 24.95 21.7 71 28 2.5 36.5
18:30 1016 30 845 24.95 21.5 70.7 30 3.3 38
18:35 1016 30 845 24.95 20.8 69.4 33 4 39.2
18:40 1016 30 845 24.95 20.1 68.2 39 5.9 42.6
18:45 1016 30 845 24.95 19.4 67 39 5.2 41.3
18:50 1016 30 845 24.95 18.8 65.8 39 4.7 40.4
18:55 1016 30 845 24.95 18.2 64.7 40 4.5 40.1
19:00 1016 30 846 24.98 17.6 63.6 42 4.7 40.4
19:05 1016 30 846 24.98 17.1 62.8 43 4.6 40.3
19:10 1017 30.03 846 24.98 16.9 62.4 43 4.2 39.6
19:15 1017 30.03 846 24.98 16.8 62.2 44 4.7 40.4
19:20 1017 30.03 846 24.98 16.7 62.1 43 4.3 39.7
19:25 1017 30.03 846 24.98 16.4 61.5 44 4.3 39.7
19:30 1017 30.03 846 24.98 16.4 61.6 44 4.3 39.8
19:35 1017 30.03 846 24.98 17 62.6 38 2.6 36.7
19:40 1017 30.03 846 24.98 18.1 64.6 37 3.4 38.1
19:45 1017 30.03 846 24.98 18.2 64.8 38 3.8 38.8
19:50 1017 30.03 846 24.98 18 64.4 39 4 39.1
19:55 1017 30.03 847 25.01 17.8 64 40 4 39.3
20:00 1017 30.03 847 25.01 17.6 63.7 41 4.2 39.5
20:05 1017 30.03 847 25.01 17.4 63.4 41 4.3 39.7
20:10 1017 30.03 846 24.98 17.3 63.1 41 4.1 39.4
20:15 1017 30.03 846 24.98 17.2 63 42 4.3 39.7
20:20 1017 30.03 846 24.98 17 62.6 43 4.4 39.9
20:25 1017 30.03 847 25.01 16.8 62.2 44 4.4 40
20:30 1017 30.03 847 25.01 16.5 61.8 44 4.5 40.1
20:35 1017 30.03 847 25.01 16.4 61.5 45 4.6 40.3
20:40 1017 30.03 846 24.98 16.2 61.2 46 4.8 40.6
20:45 1017 30.03 846 24.98 16 60.9 47 4.8 40.6
20:50 1017 30.03 846 24.98 15.9 60.5 48 4.9 40.9
20:55 1017 30.03 846 24.98 15.8 60.4 48 4.8 40.6
21:00 1018 30.06 847 25.01 15.8 60.4 48 4.9 40.9
21:05 1018 30.06 847 25.01 15.7 60.3 48 4.9 40.8
21:10 1018 30.06 847 25.01 15.7 60.3 49 5.2 41.4
21:15 1017 30.03 847 25.01 15.5 59.9 52 5.9 42.6
21:20 1017 30.03 846 24.98 15 59.1 55 6.1 42.9
21:25 1017 30.03 846 24.98 14.8 58.7 54 5.6 42
21:30 1017 30.03 846 24.98 14.9 58.8 53 5.6 42.1
21:35 1017 30.03 847 25.01 14.8 58.6 53 5.4 41.8
21:40 1017 30.03 847 25.01 14.9 58.8 52 5.3 41.6
21:45 1017 30.03 847 25.01 14.8 58.7 53 5.5 41.9
21:50 1017 30.03 847 25.01 14.8 58.6 53 5.4 41.7
21:55 1017 30.03 847 25.01 14.8 58.7 53 5.3 41.6
22:00 1017 30.03 847 25.01 14.8 58.7 53 5.4 41.7
22:05 1017 30.03 847 25.01 14.7 58.5 53 5.4 41.7
22:10 1017 30.03 847 25.01 14.6 58.3 53 5.3 41.5
22:15 1018 30.06 847 25.01 14.6 58.3 54 5.4 41.7
22:20 1018 30.06 847 25.01 14.4 58 54 5.4 41.7
22:25 1018 30.06 847 25.01 14.4 57.9 55 5.5 41.9
22:30 1018 30.06 847 25.01 14.2 57.6 55 5.4 41.7
22:35 1018 30.06 847 25.01 14.2 57.5 55 5.4 41.7
22:40 1017 30.03 847 25.01 14.1 57.4 56 5.4 41.8
22:45 1017 30.03 847 25.01 14 57.2 56 5.4 41.7
22:50 1017 30.03 847 25.01 14 57.2 56 5.4 41.7
22:55 1017 30.03 847 25.01 13.9 57 56 5.3 41.6
23:00 1017 30.03 847 25.01 13.8 56.9 56 5.3 41.6
23:05 1017 30.03 847 25.01 13.8 56.8 56 5.3 41.6
23:10 1017 30.03 847 25.01 13.7 56.6 56 5.2 41.4
23:15 1017 30.03 847 25.01 13.6 56.5 57 5.3 41.5
23:20 1018 30.06 847 25.01 13.5 56.4 57 5.2 41.4
23:25 1018 30.06 847 25.01 13.5 56.2 57 5.2 41.4
23:30 1018 30.06 847 25.01 13.4 56 57 5.2 41.3
23:35 1018 30.06 847 25.01 13.3 55.9 57 5 41.1
23:40 1018 30.06 847 25.01 13.3 55.9 57 5 41
23:45 1018 30.06 847 25.01 13.3 55.9 57 5 41
23:50 1018 30.06 847 25.01 13.2 55.7 57 5 41
23:55 1018 30.06 847 25.01 13.1 55.6 58 5 41
24:00 1018 30.06 847 25.01 13 55.4 58 5 40.9